sensor_id;sensor_type;location;lat;lon;timestamp;P1;durP1;ratioP1;P2;durP2;ratioP2
70367;SDS011;57789;53.868;10.728;2022-08-19T00:01:15;78.80;;;51.57;;
70367;SDS011;57789;53.868;10.728;2022-08-19T00:03:41;35.77;;;27.83;;
70367;SDS011;57789;53.868;10.728;2022-08-19T00:06:07;36.27;;;25.60;;
70367;SDS011;57789;53.868;10.728;2022-08-19T00:08:34;30.90;;;22.83;;
70367;SDS011;57789;53.868;10.728;2022-08-19T00:11:00;35.20;;;26.17;;
70367;SDS011;57789;53.868;10.728;2022-08-19T00:13:26;36.23;;;25.10;;
70367;SDS011;57789;53.868;10.728;2022-08-19T00:15:53;41.20;;;28.00;;
70367;SDS011;57789;53.868;10.728;2022-08-19T00:18:23;39.90;;;27.53;;
70367;SDS011;57789;53.868;10.728;2022-08-19T00:20:49;44.87;;;28.73;;
70367;SDS011;57789;53.868;10.728;2022-08-19T00:23:15;39.20;;;27.37;;
70367;SDS011;57789;53.868;10.728;2022-08-19T00:25:41;40.00;;;28.73;;
70367;SDS011;57789;53.868;10.728;2022-08-19T00:28:07;39.30;;;29.03;;
70367;SDS011;57789;53.868;10.728;2022-08-19T00:30:32;40.93;;;29.17;;
70367;SDS011;57789;53.868;10.728;2022-08-19T00:32:58;34.97;;;26.70;;
70367;SDS011;57789;53.868;10.728;2022-08-19T00:35:24;50.53;;;28.70;;
70367;SDS011;57789;53.868;10.728;2022-08-19T00:37:52;47.20;;;30.60;;
70367;SDS011;57789;53.868;10.728;2022-08-19T00:40:19;38.60;;;29.00;;
70367;SDS011;57789;53.868;10.728;2022-08-19T00:42:45;37.07;;;28.00;;
70367;SDS011;57789;53.868;10.728;2022-08-19T00:45:12;45.63;;;28.17;;
70367;SDS011;57789;53.868;10.728;2022-08-19T00:47:42;36.40;;;28.03;;
70367;SDS011;57789;53.868;10.728;2022-08-19T00:50:09;39.17;;;28.57;;
70367;SDS011;57789;53.868;10.728;2022-08-19T00:52:43;32.67;;;27.03;;
70367;SDS011;57789;53.868;10.728;2022-08-19T00:55:19;35.63;;;24.87;;
70367;SDS011;57789;53.868;10.728;2022-08-19T00:57:50;39.20;;;26.00;;
70367;SDS011;57789;53.868;10.728;2022-08-19T01:00:21;36.70;;;26.80;;
70367;SDS011;57789;53.868;10.728;2022-08-19T01:02:49;33.60;;;24.57;;
70367;SDS011;57789;53.868;10.728;2022-08-19T01:05:16;33.80;;;24.10;;
70367;SDS011;57789;53.868;10.728;2022-08-19T01:07:46;32.40;;;24.87;;
70367;SDS011;57789;53.868;10.728;2022-08-19T01:10:20;38.57;;;25.67;;
70367;SDS011;57789;53.868;10.728;2022-08-19T01:12:49;33.83;;;23.93;;
70367;SDS011;57789;53.868;10.728;2022-08-19T01:15:18;36.83;;;24.90;;
70367;SDS011;57789;53.868;10.728;2022-08-19T01:17:47;44.17;;;26.30;;
70367;SDS011;57789;53.868;10.728;2022-08-19T01:20:16;37.20;;;25.60;;
70367;SDS011;57789;53.868;10.728;2022-08-19T01:22:46;45.23;;;28.53;;
70367;SDS011;57789;53.868;10.728;2022-08-19T01:25:15;38.27;;;25.07;;
70367;SDS011;57789;53.868;10.728;2022-08-19T01:27:44;31.63;;;24.10;;
70367;SDS011;57789;53.868;10.728;2022-08-19T01:30:25;29.77;;;23.50;;
70367;SDS011;57789;53.868;10.728;2022-08-19T01:32:53;35.77;;;23.60;;
70367;SDS011;57789;53.868;10.728;2022-08-19T01:35:21;37.17;;;23.20;;
70367;SDS011;57789;53.868;10.728;2022-08-19T01:37:51;37.23;;;25.20;;
70367;SDS011;57789;53.868;10.728;2022-08-19T01:40:32;35.30;;;24.70;;
70367;SDS011;57789;53.868;10.728;2022-08-19T01:43:00;40.53;;;24.30;;
70367;SDS011;57789;53.868;10.728;2022-08-19T01:45:27;32.20;;;24.07;;
70367;SDS011;57789;53.868;10.728;2022-08-19T01:47:53;34.67;;;23.87;;
70367;SDS011;57789;53.868;10.728;2022-08-19T01:50:20;38.50;;;24.70;;
70367;SDS011;57789;53.868;10.728;2022-08-19T01:52:46;42.73;;;23.30;;
70367;SDS011;57789;53.868;10.728;2022-08-19T01:55:14;34.57;;;22.87;;
70367;SDS011;57789;53.868;10.728;2022-08-19T01:57:43;31.17;;;21.43;;
70367;SDS011;57789;53.868;10.728;2022-08-19T02:00:12;34.57;;;22.90;;
70367;SDS011;57789;53.868;10.728;2022-08-19T02:02:40;40.53;;;24.73;;
70367;SDS011;57789;53.868;10.728;2022-08-19T02:05:07;41.03;;;24.23;;
70367;SDS011;57789;53.868;10.728;2022-08-19T02:07:33;32.33;;;23.57;;
70367;SDS011;57789;53.868;10.728;2022-08-19T02:10:01;40.43;;;24.63;;
70367;SDS011;57789;53.868;10.728;2022-08-19T02:12:34;47.20;;;25.23;;
70367;SDS011;57789;53.868;10.728;2022-08-19T02:15:00;32.57;;;23.00;;
70367;SDS011;57789;53.868;10.728;2022-08-19T02:17:27;38.83;;;23.73;;
70367;SDS011;57789;53.868;10.728;2022-08-19T02:19:54;37.37;;;24.37;;
70367;SDS011;57789;53.868;10.728;2022-08-19T02:22:23;31.33;;;22.80;;
70367;SDS011;57789;53.868;10.728;2022-08-19T02:24:50;33.97;;;23.77;;
70367;SDS011;57789;53.868;10.728;2022-08-19T02:27:16;41.50;;;23.43;;
70367;SDS011;57789;53.868;10.728;2022-08-19T02:29:42;38.40;;;23.97;;
70367;SDS011;57789;53.868;10.728;2022-08-19T02:32:08;37.50;;;24.00;;
70367;SDS011;57789;53.868;10.728;2022-08-19T02:34:34;33.87;;;22.33;;
70367;SDS011;57789;53.868;10.728;2022-08-19T02:36:59;38.60;;;21.93;;
70367;SDS011;57789;53.868;10.728;2022-08-19T02:39:25;29.13;;;20.80;;
70367;SDS011;57789;53.868;10.728;2022-08-19T02:41:52;27.73;;;18.13;;
70367;SDS011;57789;53.868;10.728;2022-08-19T02:44:24;28.70;;;19.10;;
70367;SDS011;57789;53.868;10.728;2022-08-19T02:46:50;31.17;;;21.10;;
70367;SDS011;57789;53.868;10.728;2022-08-19T02:49:16;33.37;;;18.80;;
70367;SDS011;57789;53.868;10.728;2022-08-19T02:51:43;36.83;;;19.70;;
70367;SDS011;57789;53.868;10.728;2022-08-19T02:54:10;30.80;;;21.10;;
70367;SDS011;57789;53.868;10.728;2022-08-19T02:56:38;36.50;;;21.67;;
70367;SDS011;57789;53.868;10.728;2022-08-19T02:59:06;25.33;;;20.40;;
70367;SDS011;57789;53.868;10.728;2022-08-19T03:01:33;26.80;;;19.33;;
70367;SDS011;57789;53.868;10.728;2022-08-19T03:04:02;35.53;;;21.00;;
70367;SDS011;57789;53.868;10.728;2022-08-19T03:06:29;24.23;;;17.67;;
70367;SDS011;57789;53.868;10.728;2022-08-19T03:08:56;25.27;;;17.80;;
70367;SDS011;57789;53.868;10.728;2022-08-19T03:11:23;23.90;;;18.30;;
70367;SDS011;57789;53.868;10.728;2022-08-19T03:13:51;35.73;;;20.20;;
70367;SDS011;57789;53.868;10.728;2022-08-19T03:16:19;26.80;;;18.90;;
70367;SDS011;57789;53.868;10.728;2022-08-19T03:18:46;30.50;;;20.97;;
70367;SDS011;57789;53.868;10.728;2022-08-19T03:21:16;25.90;;;18.97;;
70367;SDS011;57789;53.868;10.728;2022-08-19T03:23:44;30.03;;;19.30;;
70367;SDS011;57789;53.868;10.728;2022-08-19T03:26:10;26.67;;;19.10;;
70367;SDS011;57789;53.868;10.728;2022-08-19T03:28:36;31.60;;;19.40;;
70367;SDS011;57789;53.868;10.728;2022-08-19T03:31:03;27.20;;;18.60;;
70367;SDS011;57789;53.868;10.728;2022-08-19T03:33:35;34.57;;;18.27;;
70367;SDS011;57789;53.868;10.728;2022-08-19T03:38:34;28.13;;;18.63;;
70367;SDS011;57789;53.868;10.728;2022-08-19T03:41:02;34.93;;;19.97;;
70367;SDS011;57789;53.868;10.728;2022-08-19T03:43:31;27.50;;;17.80;;
70367;SDS011;57789;53.868;10.728;2022-08-19T03:46:06;25.50;;;18.00;;
70367;SDS011;57789;53.868;10.728;2022-08-19T03:48:33;28.93;;;18.23;;
70367;SDS011;57789;53.868;10.728;2022-08-19T03:51:00;31.20;;;18.47;;
70367;SDS011;57789;53.868;10.728;2022-08-19T03:53:27;25.93;;;18.00;;
70367;SDS011;57789;53.868;10.728;2022-08-19T03:55:54;26.73;;;18.37;;
70367;SDS011;57789;53.868;10.728;2022-08-19T03:58:22;28.70;;;16.07;;
70367;SDS011;57789;53.868;10.728;2022-08-19T04:00:48;27.93;;;16.77;;
70367;SDS011;57789;53.868;10.728;2022-08-19T04:03:14;34.67;;;19.50;;
70367;SDS011;57789;53.868;10.728;2022-08-19T04:05:40;30.10;;;20.27;;
70367;SDS011;57789;53.868;10.728;2022-08-19T04:08:05;31.60;;;18.50;;
70367;SDS011;57789;53.868;10.728;2022-08-19T04:10:38;29.30;;;17.97;;
70367;SDS011;57789;53.868;10.728;2022-08-19T04:13:05;33.90;;;20.50;;
70367;SDS011;57789;53.868;10.728;2022-08-19T04:15:32;36.93;;;21.10;;
70367;SDS011;57789;53.868;10.728;2022-08-19T04:18:03;33.87;;;20.30;;
70367;SDS011;57789;53.868;10.728;2022-08-19T04:20:32;54.07;;;23.17;;
70367;SDS011;57789;53.868;10.728;2022-08-19T04:23:03;44.40;;;23.47;;
70367;SDS011;57789;53.868;10.728;2022-08-19T04:25:28;35.83;;;22.20;;
70367;SDS011;57789;53.868;10.728;2022-08-19T04:27:59;33.93;;;20.67;;
70367;SDS011;57789;53.868;10.728;2022-08-19T04:30:24;31.10;;;19.67;;
70367;SDS011;57789;53.868;10.728;2022-08-19T04:32:50;33.03;;;21.07;;
70367;SDS011;57789;53.868;10.728;2022-08-19T04:35:16;43.57;;;19.60;;
70367;SDS011;57789;53.868;10.728;2022-08-19T04:37:41;39.00;;;22.30;;
70367;SDS011;57789;53.868;10.728;2022-08-19T04:40:07;39.73;;;20.50;;
70367;SDS011;57789;53.868;10.728;2022-08-19T04:42:52;40.93;;;20.50;;
70367;SDS011;57789;53.868;10.728;2022-08-19T04:45:18;37.97;;;21.37;;
70367;SDS011;57789;53.868;10.728;2022-08-19T04:47:44;32.17;;;19.80;;
70367;SDS011;57789;53.868;10.728;2022-08-19T04:50:10;39.03;;;23.67;;
70367;SDS011;57789;53.868;10.728;2022-08-19T04:52:37;42.43;;;22.43;;
70367;SDS011;57789;53.868;10.728;2022-08-19T04:55:07;35.80;;;22.80;;
70367;SDS011;57789;53.868;10.728;2022-08-19T04:57:34;43.47;;;23.57;;
70367;SDS011;57789;53.868;10.728;2022-08-19T05:00:01;35.37;;;21.27;;
70367;SDS011;57789;53.868;10.728;2022-08-19T05:02:27;34.90;;;23.43;;
70367;SDS011;57789;53.868;10.728;2022-08-19T05:04:57;53.43;;;27.97;;
70367;SDS011;57789;53.868;10.728;2022-08-19T05:07:26;40.67;;;25.90;;
70367;SDS011;57789;53.868;10.728;2022-08-19T05:09:52;49.10;;;24.17;;
70367;SDS011;57789;53.868;10.728;2022-08-19T05:12:18;42.57;;;24.93;;
70367;SDS011;57789;53.868;10.728;2022-08-19T05:14:44;37.63;;;23.43;;
70367;SDS011;57789;53.868;10.728;2022-08-19T05:17:12;44.63;;;25.50;;
70367;SDS011;57789;53.868;10.728;2022-08-19T05:19:40;38.13;;;25.57;;
70367;SDS011;57789;53.868;10.728;2022-08-19T05:22:24;33.63;;;23.83;;
70367;SDS011;57789;53.868;10.728;2022-08-19T05:25:04;42.90;;;24.40;;
70367;SDS011;57789;53.868;10.728;2022-08-19T05:27:31;35.50;;;24.13;;
70367;SDS011;57789;53.868;10.728;2022-08-19T05:29:57;45.40;;;24.53;;
70367;SDS011;57789;53.868;10.728;2022-08-19T05:32:24;44.93;;;24.80;;
70367;SDS011;57789;53.868;10.728;2022-08-19T05:34:50;50.73;;;27.40;;
70367;SDS011;57789;53.868;10.728;2022-08-19T05:37:15;42.97;;;26.50;;
70367;SDS011;57789;53.868;10.728;2022-08-19T05:39:42;41.17;;;26.20;;
70367;SDS011;57789;53.868;10.728;2022-08-19T05:42:09;41.00;;;27.13;;
70367;SDS011;57789;53.868;10.728;2022-08-19T05:44:38;42.13;;;24.77;;
70367;SDS011;57789;53.868;10.728;2022-08-19T05:47:08;36.43;;;24.67;;
70367;SDS011;57789;53.868;10.728;2022-08-19T05:49:35;46.57;;;27.27;;
70367;SDS011;57789;53.868;10.728;2022-08-19T05:52:05;39.40;;;26.57;;
70367;SDS011;57789;53.868;10.728;2022-08-19T05:54:33;43.43;;;25.37;;
70367;SDS011;57789;53.868;10.728;2022-08-19T05:57:01;38.97;;;25.63;;
70367;SDS011;57789;53.868;10.728;2022-08-19T05:59:27;45.40;;;27.70;;
70367;SDS011;57789;53.868;10.728;2022-08-19T06:01:53;40.50;;;26.30;;
70367;SDS011;57789;53.868;10.728;2022-08-19T06:04:21;38.07;;;24.60;;
70367;SDS011;57789;53.868;10.728;2022-08-19T06:06:49;45.20;;;24.30;;
70367;SDS011;57789;53.868;10.728;2022-08-19T06:09:20;37.77;;;26.70;;
70367;SDS011;57789;53.868;10.728;2022-08-19T06:11:47;55.40;;;27.27;;
70367;SDS011;57789;53.868;10.728;2022-08-19T06:14:19;44.23;;;28.60;;
70367;SDS011;57789;53.868;10.728;2022-08-19T06:16:47;48.57;;;28.00;;
70367;SDS011;57789;53.868;10.728;2022-08-19T06:19:14;42.80;;;27.00;;
70367;SDS011;57789;53.868;10.728;2022-08-19T06:21:43;43.03;;;25.27;;
70367;SDS011;57789;53.868;10.728;2022-08-19T06:24:11;44.10;;;26.50;;
70367;SDS011;57789;53.868;10.728;2022-08-19T06:26:40;43.50;;;26.00;;
70367;SDS011;57789;53.868;10.728;2022-08-19T06:29:09;38.60;;;25.63;;
70367;SDS011;57789;53.868;10.728;2022-08-19T06:31:39;46.57;;;25.40;;
70367;SDS011;57789;53.868;10.728;2022-08-19T06:34:08;39.90;;;25.70;;
70367;SDS011;57789;53.868;10.728;2022-08-19T06:36:38;52.93;;;27.17;;
70367;SDS011;57789;53.868;10.728;2022-08-19T06:39:09;48.17;;;28.70;;
70367;SDS011;57789;53.868;10.728;2022-08-19T06:41:41;46.33;;;25.40;;
70367;SDS011;57789;53.868;10.728;2022-08-19T06:44:11;39.60;;;26.03;;
70367;SDS011;57789;53.868;10.728;2022-08-19T06:46:39;59.30;;;27.47;;
70367;SDS011;57789;53.868;10.728;2022-08-19T06:49:06;44.13;;;26.17;;
70367;SDS011;57789;53.868;10.728;2022-08-19T06:51:36;43.27;;;26.10;;
70367;SDS011;57789;53.868;10.728;2022-08-19T06:54:02;51.70;;;30.67;;
70367;SDS011;57789;53.868;10.728;2022-08-19T06:56:29;50.80;;;27.97;;
70367;SDS011;57789;53.868;10.728;2022-08-19T06:59:05;50.97;;;28.57;;
70367;SDS011;57789;53.868;10.728;2022-08-19T07:01:43;49.60;;;28.07;;
70367;SDS011;57789;53.868;10.728;2022-08-19T07:04:20;43.40;;;29.07;;
70367;SDS011;57789;53.868;10.728;2022-08-19T07:06:49;49.87;;;27.20;;
70367;SDS011;57789;53.868;10.728;2022-08-19T07:09:21;40.23;;;26.30;;
70367;SDS011;57789;53.868;10.728;2022-08-19T07:11:47;46.67;;;27.60;;
70367;SDS011;57789;53.868;10.728;2022-08-19T07:14:15;41.40;;;27.73;;
70367;SDS011;57789;53.868;10.728;2022-08-19T07:16:42;53.80;;;28.87;;
70367;SDS011;57789;53.868;10.728;2022-08-19T07:19:10;46.47;;;28.17;;
70367;SDS011;57789;53.868;10.728;2022-08-19T07:21:36;40.50;;;25.17;;
70367;SDS011;57789;53.868;10.728;2022-08-19T07:24:02;40.40;;;24.67;;
70367;SDS011;57789;53.868;10.728;2022-08-19T07:26:30;42.20;;;26.47;;
70367;SDS011;57789;53.868;10.728;2022-08-19T07:28:57;43.63;;;26.90;;
70367;SDS011;57789;53.868;10.728;2022-08-19T07:31:25;45.47;;;28.70;;
70367;SDS011;57789;53.868;10.728;2022-08-19T07:33:53;46.03;;;27.43;;
70367;SDS011;57789;53.868;10.728;2022-08-19T07:36:22;49.30;;;29.30;;
70367;SDS011;57789;53.868;10.728;2022-08-19T07:38:50;48.27;;;27.40;;
70367;SDS011;57789;53.868;10.728;2022-08-19T07:41:21;60.43;;;32.27;;
70367;SDS011;57789;53.868;10.728;2022-08-19T07:43:49;45.20;;;27.07;;
70367;SDS011;57789;53.868;10.728;2022-08-19T07:46:15;48.57;;;29.73;;
70367;SDS011;57789;53.868;10.728;2022-08-19T07:48:42;53.13;;;30.57;;
70367;SDS011;57789;53.868;10.728;2022-08-19T07:51:13;62.83;;;29.57;;
70367;SDS011;57789;53.868;10.728;2022-08-19T07:53:42;51.20;;;30.20;;
70367;SDS011;57789;53.868;10.728;2022-08-19T07:56:10;51.90;;;30.77;;
70367;SDS011;57789;53.868;10.728;2022-08-19T07:58:38;50.83;;;29.77;;
70367;SDS011;57789;53.868;10.728;2022-08-19T08:01:06;53.93;;;30.30;;
70367;SDS011;57789;53.868;10.728;2022-08-19T08:03:32;52.13;;;27.87;;
70367;SDS011;57789;53.868;10.728;2022-08-19T08:06:16;51.33;;;29.83;;
70367;SDS011;57789;53.868;10.728;2022-08-19T08:09:02;49.50;;;28.00;;
70367;SDS011;57789;53.868;10.728;2022-08-19T08:14:49;64.27;;;34.90;;
70367;SDS011;57789;53.868;10.728;2022-08-19T08:17:17;65.27;;;34.13;;
70367;SDS011;57789;53.868;10.728;2022-08-19T08:19:45;66.73;;;34.53;;
70367;SDS011;57789;53.868;10.728;2022-08-19T08:22:13;69.33;;;31.57;;
70367;SDS011;57789;53.868;10.728;2022-08-19T08:25:06;62.00;;;33.53;;
70367;SDS011;57789;53.868;10.728;2022-08-19T08:27:38;60.83;;;32.37;;
70367;SDS011;57789;53.868;10.728;2022-08-19T08:30:09;64.10;;;35.20;;
70367;SDS011;57789;53.868;10.728;2022-08-19T08:32:42;57.30;;;33.83;;
70367;SDS011;57789;53.868;10.728;2022-08-19T08:35:11;61.57;;;34.40;;
70367;SDS011;57789;53.868;10.728;2022-08-19T08:37:39;59.30;;;34.53;;
70367;SDS011;57789;53.868;10.728;2022-08-19T08:40:07;62.23;;;35.17;;
70367;SDS011;57789;53.868;10.728;2022-08-19T08:43:09;54.07;;;31.70;;
70367;SDS011;57789;53.868;10.728;2022-08-19T08:45:47;83.43;;;47.23;;
70367;SDS011;57789;53.868;10.728;2022-08-19T08:48:41;68.97;;;38.13;;
70367;SDS011;57789;53.868;10.728;2022-08-19T08:51:17;70.60;;;33.07;;
70367;SDS011;57789;53.868;10.728;2022-08-19T08:54:04;72.23;;;34.27;;
70367;SDS011;57789;53.868;10.728;2022-08-19T08:56:32;66.60;;;37.03;;
70367;SDS011;57789;53.868;10.728;2022-08-19T08:58:59;65.93;;;34.70;;
70367;SDS011;57789;53.868;10.728;2022-08-19T09:01:31;68.37;;;35.57;;
70367;SDS011;57789;53.868;10.728;2022-08-19T09:03:57;84.47;;;41.40;;
70367;SDS011;57789;53.868;10.728;2022-08-19T09:09:30;64.70;;;33.63;;
70367;SDS011;57789;53.868;10.728;2022-08-19T09:17:25;72.13;;;36.73;;
70367;SDS011;57789;53.868;10.728;2022-08-19T09:22:44;79.60;;;38.03;;
70367;SDS011;57789;53.868;10.728;2022-08-19T09:25:11;71.90;;;35.60;;
70367;SDS011;57789;53.868;10.728;2022-08-19T09:27:40;76.93;;;37.00;;
70367;SDS011;57789;53.868;10.728;2022-08-19T09:30:07;74.73;;;36.30;;
70367;SDS011;57789;53.868;10.728;2022-08-19T09:32:35;77.07;;;38.47;;
70367;SDS011;57789;53.868;10.728;2022-08-19T09:35:01;65.23;;;32.90;;
70367;SDS011;57789;53.868;10.728;2022-08-19T09:37:27;70.73;;;36.90;;
70367;SDS011;57789;53.868;10.728;2022-08-19T09:39:53;70.93;;;35.23;;
70367;SDS011;57789;53.868;10.728;2022-08-19T09:42:19;72.00;;;33.43;;
70367;SDS011;57789;53.868;10.728;2022-08-19T09:44:45;68.80;;;33.67;;
70367;SDS011;57789;53.868;10.728;2022-08-19T09:47:12;71.77;;;34.53;;
70367;SDS011;57789;53.868;10.728;2022-08-19T09:49:39;66.03;;;33.73;;
70367;SDS011;57789;53.868;10.728;2022-08-19T09:52:06;76.93;;;37.07;;
70367;SDS011;57789;53.868;10.728;2022-08-19T09:54:35;69.53;;;33.43;;
70367;SDS011;57789;53.868;10.728;2022-08-19T09:57:02;71.50;;;34.30;;
70367;SDS011;57789;53.868;10.728;2022-08-19T09:59:28;70.53;;;35.57;;
70367;SDS011;57789;53.868;10.728;2022-08-19T10:01:54;70.00;;;34.73;;
70367;SDS011;57789;53.868;10.728;2022-08-19T10:04:20;71.07;;;34.70;;
70367;SDS011;57789;53.868;10.728;2022-08-19T10:06:47;70.50;;;34.27;;
70367;SDS011;57789;53.868;10.728;2022-08-19T10:09:15;76.33;;;36.10;;
70367;SDS011;57789;53.868;10.728;2022-08-19T10:11:43;82.20;;;35.90;;
70367;SDS011;57789;53.868;10.728;2022-08-19T10:14:15;76.87;;;35.13;;
70367;SDS011;57789;53.868;10.728;2022-08-19T10:16:42;75.10;;;36.70;;
70367;SDS011;57789;53.868;10.728;2022-08-19T10:19:08;69.40;;;35.97;;
70367;SDS011;57789;53.868;10.728;2022-08-19T10:21:34;66.43;;;34.83;;
70367;SDS011;57789;53.868;10.728;2022-08-19T10:24:02;86.97;;;35.63;;
70367;SDS011;57789;53.868;10.728;2022-08-19T10:26:31;71.50;;;34.97;;
70367;SDS011;57789;53.868;10.728;2022-08-19T10:29:01;76.97;;;35.20;;
70367;SDS011;57789;53.868;10.728;2022-08-19T10:31:29;67.87;;;38.00;;
70367;SDS011;57789;53.868;10.728;2022-08-19T10:33:56;83.83;;;37.07;;
70367;SDS011;57789;53.868;10.728;2022-08-19T10:36:24;61.17;;;34.80;;
70367;SDS011;57789;53.868;10.728;2022-08-19T10:38:52;70.80;;;34.40;;
70367;SDS011;57789;53.868;10.728;2022-08-19T10:41:23;72.97;;;36.10;;
70367;SDS011;57789;53.868;10.728;2022-08-19T10:43:54;77.70;;;34.67;;
70367;SDS011;57789;53.868;10.728;2022-08-19T10:46:23;73.77;;;35.60;;
70367;SDS011;57789;53.868;10.728;2022-08-19T10:48:50;66.33;;;34.30;;
70367;SDS011;57789;53.868;10.728;2022-08-19T10:51:16;82.87;;;36.27;;
70367;SDS011;57789;53.868;10.728;2022-08-19T10:54:01;72.20;;;40.73;;
70367;SDS011;57789;53.868;10.728;2022-08-19T10:56:28;81.07;;;35.03;;
70367;SDS011;57789;53.868;10.728;2022-08-19T10:59:13;55.77;;;31.10;;
70367;SDS011;57789;53.868;10.728;2022-08-19T11:01:41;72.23;;;33.50;;
70367;SDS011;57789;53.868;10.728;2022-08-19T11:04:08;59.70;;;31.90;;
70367;SDS011;57789;53.868;10.728;2022-08-19T11:06:36;62.20;;;31.23;;
70367;SDS011;57789;53.868;10.728;2022-08-19T11:09:03;70.90;;;31.87;;
70367;SDS011;57789;53.868;10.728;2022-08-19T11:11:30;69.63;;;32.47;;
70367;SDS011;57789;53.868;10.728;2022-08-19T11:13:57;57.20;;;32.53;;
70367;SDS011;57789;53.868;10.728;2022-08-19T11:16:24;64.30;;;31.37;;
70367;SDS011;57789;53.868;10.728;2022-08-19T11:18:56;63.83;;;30.27;;
70367;SDS011;57789;53.868;10.728;2022-08-19T11:21:25;59.83;;;29.93;;
70367;SDS011;57789;53.868;10.728;2022-08-19T11:23:56;64.27;;;29.97;;
70367;SDS011;57789;53.868;10.728;2022-08-19T11:26:23;56.57;;;28.03;;
70367;SDS011;57789;53.868;10.728;2022-08-19T11:28:49;61.07;;;27.27;;
70367;SDS011;57789;53.868;10.728;2022-08-19T11:31:28;44.33;;;24.73;;
70367;SDS011;57789;53.868;10.728;2022-08-19T11:33:57;46.37;;;24.80;;
70367;SDS011;57789;53.868;10.728;2022-08-19T11:36:24;48.30;;;27.50;;
70367;SDS011;57789;53.868;10.728;2022-08-19T11:38:51;45.07;;;25.27;;
70367;SDS011;57789;53.868;10.728;2022-08-19T11:41:18;49.07;;;25.93;;
70367;SDS011;57789;53.868;10.728;2022-08-19T11:43:46;51.73;;;28.13;;
70367;SDS011;57789;53.868;10.728;2022-08-19T11:46:12;44.27;;;23.83;;
70367;SDS011;57789;53.868;10.728;2022-08-19T11:48:39;44.27;;;25.17;;
70367;SDS011;57789;53.868;10.728;2022-08-19T11:51:06;45.93;;;26.67;;
70367;SDS011;57789;53.868;10.728;2022-08-19T11:53:36;49.13;;;25.43;;
70367;SDS011;57789;53.868;10.728;2022-08-19T11:56:04;52.43;;;28.33;;
70367;SDS011;57789;53.868;10.728;2022-08-19T11:58:31;47.30;;;24.80;;
70367;SDS011;57789;53.868;10.728;2022-08-19T12:00:57;45.90;;;25.00;;
70367;SDS011;57789;53.868;10.728;2022-08-19T12:03:23;46.70;;;26.70;;
70367;SDS011;57789;53.868;10.728;2022-08-19T12:05:49;41.90;;;23.97;;
70367;SDS011;57789;53.868;10.728;2022-08-19T12:08:15;49.47;;;24.67;;
70367;SDS011;57789;53.868;10.728;2022-08-19T12:10:41;35.87;;;22.40;;
70367;SDS011;57789;53.868;10.728;2022-08-19T12:13:08;33.37;;;23.07;;
70367;SDS011;57789;53.868;10.728;2022-08-19T12:15:35;35.50;;;22.20;;
70367;SDS011;57789;53.868;10.728;2022-08-19T12:18:02;29.97;;;21.20;;
70367;SDS011;57789;53.868;10.728;2022-08-19T12:20:28;35.43;;;22.83;;
70367;SDS011;57789;53.868;10.728;2022-08-19T12:22:54;33.07;;;21.80;;
70367;SDS011;57789;53.868;10.728;2022-08-19T12:25:19;32.60;;;21.17;;
70367;SDS011;57789;53.868;10.728;2022-08-19T12:27:45;32.33;;;19.47;;
